Time;durP1;ratioP1;P1;durP2;ratioP2;P2;SDS_P1;SDS_P2;PMS_P1;PMS_P2;Temp;Humidity;BMP_temperature;BMP_pressure;BME280_temperature;BME280_humidity;BME280_pressure;Samples;Min_cycle;Max_cycle;Signal;HPM_P1;HPM_P2
2022/01/22 00:01:11;;;;;;;1999.90;999.90;;;;;;;0.24;67.25;101874.59;4989632;22;97920;-73
2022/01/22 00:03:40;;;;;;;1999.90;999.90;;;;;;;0.29;65.80;101874.97;4999523;28;97842;-73
2022/01/22 00:06:08;;;;;;;1999.90;999.90;;;;;;;0.28;66.98;101886.22;4994942;28;98454;-73
2022/01/22 00:08:37;;;;;;;1999.90;999.90;;;;;;;0.32;66.31;101875.22;4998011;28;97696;-72
2022/01/22 00:11:05;;;;;;;1999.90;999.90;;;;;;;0.33;66.19;101875.34;5003914;28;96915;-74
2022/01/22 00:16:19;;;;;;;1999.90;999.90;;;;;;;0.36;65.81;101883.41;4994986;28;98501;-73
2022/01/22 00:18:47;;;;;;;1999.90;999.90;;;;;;;0.37;66.37;101868.63;5001001;28;98900;-73
2022/01/22 00:21:15;;;;;;;1999.90;999.90;;;;;;;0.38;66.64;101878.31;4997839;28;97275;-74
2022/01/22 00:23:54;;;;;;;1999.90;999.90;;;;;;;0.32;67.28;101880.47;4997710;28;99297;-73
2022/01/22 00:26:22;;;;;;;1999.90;999.90;;;;;;;0.34;66.67;101878.88;5000581;28;100857;-73
2022/01/22 00:28:50;;;;;;;1999.90;999.90;;;;;;;0.28;66.95;101886.22;5000948;28;98934;-73
2022/01/22 00:31:18;;;;;;;1999.90;999.90;;;;;;;0.31;67.44;101891.69;4999367;28;97133;-73
2022/01/22 00:33:46;;;;;;;1999.90;999.90;;;;;;;0.30;67.34;101890.81;4981219;28;100480;-73
2022/01/22 00:36:14;;;;;;;1999.90;999.90;;;;;;;0.31;66.88;101896.94;4998134;28;100728;-74
2022/01/22 00:38:43;;;;;;;1999.90;999.90;;;;;;;0.34;66.68;101885.00;4998370;28;96728;-73
2022/01/22 00:41:11;;;;;;;1999.90;999.90;;;;;;;0.36;67.18;101890.38;5000986;27;97062;-73
2022/01/22 00:43:39;;;;;;;1999.90;999.90;;;;;;;0.42;66.14;101890.84;4997291;28;98031;-73
2022/01/22 00:46:07;;;;;;;1999.90;999.90;;;;;;;0.35;66.92;101904.25;5000487;28;98288;-73
2022/01/22 00:48:34;;;;;;;1999.90;999.90;;;;;;;0.71;64.55;101901.91;4995968;28;97635;-73
2022/01/22 00:51:02;;;;;;;1999.90;999.90;;;;;;;0.58;66.40;101896.50;4998665;28;97991;-73
2022/01/22 00:53:32;;;;;;;1999.90;999.90;;;;;;;0.48;68.33;101894.88;4999269;28;99410;-73
2022/01/22 00:56:01;;;;;;;1999.90;999.90;;;;;;;0.80;65.01;101893.06;4997311;28;97189;-73
2022/01/22 00:58:30;;;;;;;1999.90;999.90;;;;;;;0.58;66.45;101899.13;5035579;22;97795;-70
2022/01/22 01:00:58;;;;;;;1999.90;999.90;;;;;;;0.57;66.58;101913.03;5020095;27;98335;-70
2022/01/22 01:03:30;;;;;;;1999.90;999.90;;;;;;;0.49;68.21;101909.78;5000228;28;97617;-71
2022/01/22 01:05:58;;;;;;;1999.90;999.90;;;;;;;0.55;67.68;101917.22;4997546;28;99198;-72
2022/01/22 01:08:27;;;;;;;1999.90;999.90;;;;;;;0.51;68.41;101921.31;5000354;28;98401;-70
2022/01/22 01:10:55;;;;;;;1999.90;999.90;;;;;;;0.55;66.56;101914.59;4982291;28;97907;-72
2022/01/22 01:13:26;;;;;;;1999.90;999.90;;;;;;;0.60;65.89;101915.88;4996388;28;97650;-70
2022/01/22 01:16:01;;;;;;;1999.90;999.90;;;;;;;0.60;65.99;101916.78;4996040;28;97788;-70
2022/01/22 01:32:20;;;;;;;1999.90;999.90;;;;;;;0.53;73.76;101927.56;4980235;28;98897;-70
2022/01/22 01:34:51;;;;;;;1999.90;999.90;;;;;;;0.46;69.19;101926.97;4998856;28;97723;-68
2022/01/22 01:37:20;;;;;;;1999.90;999.90;;;;;;;0.48;67.82;101933.25;4998685;28;96827;-70
2022/01/22 01:39:53;;;;;;;1999.90;999.90;;;;;;;0.52;67.27;101920.50;4981924;28;97210;-71
2022/01/22 01:42:28;;;;;;;1999.90;999.90;;;;;;;0.53;66.47;101926.66;4996304;28;96984;-71
2022/01/22 01:45:00;;;;;;;1999.90;999.90;;;;;;;0.53;67.53;101926.66;4996464;28;98422;-71
2022/01/22 01:47:38;;;;;;;1999.90;999.90;;;;;;;0.57;66.55;101929.66;4983866;28;102794;-71
2022/01/22 01:50:08;;;;;;;1999.90;999.90;;;;;;;0.53;67.77;101931.91;5009551;27;98696;-72
2022/01/22 01:52:43;;;;;;;1999.90;999.90;;;;;;;0.53;67.14;101932.81;5011031;27;96993;-70
2022/01/22 01:55:15;;;;;;;1999.90;999.90;;;;;;;0.57;67.07;101954.91;4998556;28;96943;-70
2022/01/22 01:57:43;;;;;;;1999.90;999.90;;;;;;;0.40;70.95;101947.41;4979950;28;100014;-71
2022/01/22 02:00:18;;;;;;;1999.90;999.90;;;;;;;0.37;71.13;101942.88;4997469;28;98984;-71
2022/01/22 02:02:52;;;;;;;1999.90;999.90;;;;;;;0.43;70.25;101945.06;4984262;28;96970;-70
2022/01/22 02:05:23;;;;;;;1999.90;999.90;;;;;;;0.47;68.60;101952.34;4999345;28;96686;-71
2022/01/22 02:07:55;;;;;;;1999.90;999.90;;;;;;;0.54;67.22;101950.34;4981272;28;99408;-70
2022/01/22 02:10:32;;;;;;;1999.90;999.90;;;;;;;0.60;66.37;101947.28;5003449;28;96950;-71
2022/01/22 02:24:18;;;;;;;1999.90;999.90;;;;;;;0.95;65.37;101964.09;4982409;28;97431;-71
2022/01/22 02:26:48;;;;;;;1999.90;999.90;;;;;;;0.82;65.98;101970.09;4986310;28;100739;-70
2022/01/22 02:29:19;;;;;;;1999.90;999.90;;;;;;;0.82;66.46;101964.84;4999955;28;98382;-71
2022/01/22 02:32:37;;;;;;;1999.90;999.90;;;;;;;0.81;66.75;101954.25;5001642;28;97885;-70
2022/01/22 02:35:09;;;;;;;1999.90;999.90;;;;;;;0.74;66.91;101949.31;5016977;27;96766;-70
2022/01/22 02:37:44;;;;;;;1999.90;999.90;;;;;;;1.05;65.32;101962.31;4980094;28;99310;-70
2022/01/22 02:40:17;;;;;;;1999.90;999.90;;;;;;;0.90;66.16;101965.44;5015437;27;101105;-72
2022/01/22 02:42:45;;;;;;;1999.90;999.90;;;;;;;0.80;66.62;101969.03;4983768;28;98390;-71
2022/01/22 02:45:18;;;;;;;1999.90;999.90;;;;;;;0.82;66.41;101975.31;5001302;28;98154;-71
2022/01/22 02:47:45;;;;;;;1999.90;999.90;;;;;;;1.12;65.38;101971.56;5000971;28;96964;-70
2022/01/22 02:50:15;;;;;;;1999.90;999.90;;;;;;;0.95;66.46;101970.25;4984356;28;101363;-71
2022/01/22 02:52:45;;;;;;;1999.90;999.90;;;;;;;0.92;66.16;101985.72;5000566;28;97814;-71
2022/01/22 02:55:14;;;;;;;1999.90;999.90;;;;;;;0.94;66.43;101983.25;5017449;27;97015;-71
2022/01/22 02:57:44;;;;;;;1999.90;999.90;;;;;;;0.90;66.48;101981.16;4984585;28;100741;-70
2022/01/22 03:00:18;;;;;;;1999.90;999.90;;;;;;;0.90;65.72;101984.72;4983147;28;99967;-71
2022/01/22 03:02:48;;;;;;;1999.90;999.90;;;;;;;0.86;65.65;101993.13;4981178;28;97390;-71
2022/01/22 03:05:19;;;;;;;1999.90;999.90;;;;;;;0.82;66.27;102001.53;4982100;28;97459;-71
2022/01/22 03:07:52;;;;;;;1999.90;999.90;;;;;;;0.80;66.00;102002.19;4979781;28;99299;-70
2022/01/22 03:10:24;;;;;;;1999.90;999.90;;;;;;;0.73;66.19;102005.09;4983921;28;97405;-71
2022/01/22 03:15:51;;;;;;;1999.90;999.90;;;;;;;0.67;66.19;102004.59;4961900;28;97094;-70
2022/01/22 03:18:22;;;;;;;1999.90;999.90;;;;;;;0.98;65.15;101998.38;5001356;28;97980;-68
2022/01/22 03:21:07;;;;;;;1999.90;999.90;;;;;;;0.84;65.45;102009.50;5016814;27;98888;-69
2022/01/22 03:29:10;;;;;;;1999.90;999.90;;;;;;;0.75;65.53;102024.47;4982683;28;100846;-69
2022/01/22 03:31:40;;;;;;;1999.90;999.90;;;;;;;0.73;66.15;102028.69;4999712;28;100647;-70
2022/01/22 03:34:08;;;;;;;1999.90;999.90;;;;;;;0.57;66.60;102030.88;5000985;28;96951;-70
2022/01/22 03:36:36;;;;;;;1999.90;999.90;;;;;;;0.91;65.48;102043.25;4999457;28;97068;-71
2022/01/22 03:39:09;;;;;;;1999.90;999.90;;;;;;;0.70;65.80;102037.22;4999190;28;98264;-70
2022/01/22 03:41:39;;;;;;;1999.90;999.90;;;;;;;0.65;65.84;102042.91;4999179;28;99082;-70
2022/01/22 03:44:08;;;;;;;1999.90;999.90;;;;;;;0.62;65.58;102048.78;4998938;28;97229;-70
2022/01/22 03:46:38;;;;;;;1999.90;999.90;;;;;;;0.62;66.14;102053.09;4983507;28;96891;-72
2022/01/22 03:49:05;;;;;;;1999.90;999.90;;;;;;;0.91;65.24;102051.13;4980523;28;100334;-71
2022/01/22 03:51:34;;;;;;;1999.90;999.90;;;;;;;0.72;65.77;102051.34;4999218;28;99327;-72
2022/01/22 03:54:01;;;;;;;1999.90;999.90;;;;;;;0.75;65.56;102061.16;5001198;28;97067;-72
2022/01/22 03:56:30;;;;;;;1999.90;999.90;;;;;;;0.69;66.14;102068.50;4999891;28;96859;-70
2022/01/22 03:59:07;;;;;;;1999.90;999.90;;;;;;;0.71;65.90;102082.66;5001042;28;98169;-70
2022/01/22 04:04:46;;;;;;;1999.90;999.90;;;;;;;0.70;65.22;102093.94;5061454;27;97319;-73
2022/01/22 04:07:52;;;;;;;1999.90;999.90;;;;;;;0.67;65.69;102104.16;5038368;27;97569;-73
2022/01/22 04:10:21;;;;;;;1999.90;999.90;;;;;;;0.68;65.11;102100.75;5017542;27;98630;-73
2022/01/22 04:12:55;;;;;;;1999.90;999.90;;;;;;;0.74;64.94;102106.50;5036544;27;96979;-72
2022/01/22 04:15:23;;;;;;;1999.90;999.90;;;;;;;0.75;65.11;102111.88;5018314;27;99134;-73
2022/01/22 04:26:18;;;;;;;1999.90;999.90;;;;;;;0.64;65.50;102131.03;5058347;27;98458;-72
2022/01/22 04:28:45;;;;;;;1999.90;999.90;;;;;;;0.62;65.36;102129.06;5034269;27;98575;-72
2022/01/22 04:31:13;;;;;;;1999.90;999.90;;;;;;;0.57;65.12;102130.38;5036174;27;98884;-72
2022/01/22 04:33:41;;;;;;;1999.90;999.90;;;;;;;0.52;65.99;102131.72;5035516;27;98779;-72
2022/01/22 04:36:11;;;;;;;1999.90;999.90;;;;;;;0.52;65.56;102134.34;5036574;27;97106;-72
2022/01/22 04:38:39;;;;;;;1999.90;999.90;;;;;;;0.53;65.70;102136.16;5034252;27;97413;-73
2022/01/22 04:41:07;;;;;;;1999.90;999.90;;;;;;;0.51;65.25;102138.66;5017851;27;99692;-74
2022/01/22 04:43:38;;;;;;;1999.90;999.90;;;;;;;0.43;65.64;102134.47;5034859;27;96792;-72
2022/01/22 04:46:14;;;;;;;1999.90;999.90;;;;;;;0.43;65.52;102139.72;5018367;27;96877;-71
2022/01/22 04:48:51;;;;;;;1999.90;999.90;;;;;;;0.79;64.54;102137.53;5051559;27;98162;-72
2022/01/22 04:56:54;;;;;;;1999.90;999.90;;;;;;;0.68;65.02;102140.03;4999525;27;98341;-72
2022/01/22 04:59:22;;;;;;;1999.90;999.90;;;;;;;0.68;64.72;102142.66;5035948;27;97022;-72
2022/01/22 05:01:51;;;;;;;1999.90;999.90;;;;;;;0.65;65.46;102147.66;5049768;27;97981;-71
2022/01/22 05:04:42;;;;;;;1999.90;999.90;;;;;;;0.65;65.25;102156.41;4977053;27;98827;-73
2022/01/22 05:07:18;;;;;;;1999.90;999.90;;;;;;;0.59;65.19;102160.25;5049903;27;97314;-73
2022/01/22 05:10:11;;;;;;;1999.90;999.90;;;;;;;0.60;64.67;102164.69;5036366;27;97511;-73
2022/01/22 05:12:39;;;;;;;1999.90;999.90;;;;;;;0.60;64.77;102159.44;5032177;27;98499;-72
2022/01/22 05:15:08;;;;;;;1999.90;999.90;;;;;;;0.56;65.47;102170.47;5041932;27;99861;-73
2022/01/22 05:17:38;;;;;;;1999.90;999.90;;;;;;;0.77;64.52;102169.63;4997747;27;98157;-73
2022/01/22 05:20:25;;;;;;;1999.90;999.90;;;;;;;0.87;64.41;102166.94;5003067;27;96900;-72
2022/01/22 05:23:00;;;;;;;1999.90;999.90;;;;;;;0.62;65.57;102176.19;5001497;27;100579;-72
2022/01/22 05:25:34;;;;;;;1999.90;999.90;;;;;;;0.60;65.55;102190.88;5004063;27;97754;-72
2022/01/22 05:28:20;;;;;;;1999.90;999.90;;;;;;;0.52;65.77;102185.00;5022987;27;98501;-72
2022/01/22 05:31:32;;;;;;;1999.90;999.90;;;;;;;0.54;65.41;102195.63;5020373;27;97535;-72
2022/01/22 05:37:29;;;;;;;1999.90;999.90;;;;;;;0.66;64.92;102186.16;5051751;27;97745;-72
2022/01/22 05:39:58;;;;;;;1999.90;999.90;;;;;;;0.62;65.24;102187.59;5018833;27;96793;-72
2022/01/22 05:42:26;;;;;;;1999.90;999.90;;;;;;;0.60;65.13;102198.72;5051728;27;99264;-73
2022/01/22 05:44:54;;;;;;;1999.90;999.90;;;;;;;0.60;65.63;102202.28;5009881;27;97997;-73
2022/01/22 05:47:26;;;;;;;1999.90;999.90;;;;;;;0.63;65.28;102202.50;5015698;27;97830;-73
2022/01/22 05:49:54;;;;;;;1999.90;999.90;;;;;;;0.55;65.47;102203.59;5018702;27;97632;-72
2022/01/22 05:52:29;;;;;;;1999.90;999.90;;;;;;;0.50;65.31;102212.78;5017063;27;98668;-72
2022/01/22 05:55:26;;;;;;;1999.90;999.90;;;;;;;0.50;65.65;102214.47;5020510;27;97195;-73
2022/01/22 06:00:48;;;;;;;1999.90;999.90;;;;;;;0.45;65.63;102227.16;5049513;27;96926;-72
2022/01/22 06:03:26;;;;;;;1999.90;999.90;;;;;;;0.46;65.28;102218.53;5002096;27;97543;-73
2022/01/22 06:05:56;;;;;;;1999.90;999.90;;;;;;;0.43;65.76;102225.22;5020409;27;100363;-73
2022/01/22 06:08:30;;;;;;;1999.90;999.90;;;;;;;0.44;65.38;102219.19;4998911;27;99530;-73
2022/01/22 06:11:07;;;;;;;1999.90;999.90;;;;;;;0.45;65.52;102226.28;5021425;27;98592;-72
2022/01/22 06:13:44;;;;;;;1999.90;999.90;;;;;;;0.46;65.17;102228.09;4998490;27;97883;-72
2022/01/22 06:16:17;;;;;;;1999.90;999.90;;;;;;;0.49;65.10;102230.97;5050454;27;100668;-73
2022/01/22 06:19:08;;;;;;;1999.90;999.90;;;;;;;0.53;65.46;102230.44;5016340;27;101097;-73
2022/01/22 06:21:36;;;;;;;1999.90;999.90;;;;;;;0.55;65.18;102239.34;5003304;27;97550;-72
2022/01/22 06:24:04;;;;;;;1999.90;999.90;;;;;;;0.83;64.67;102236.53;5002205;28;97921;-73
2022/01/22 06:26:35;;;;;;;1999.90;999.90;;;;;;;0.67;64.70;102246.53;5001051;27;100383;-73
2022/01/22 06:29:04;;;;;;;1999.90;999.90;;;;;;;0.64;64.88;102245.34;5000433;27;99996;-73
2022/01/22 06:31:32;;;;;;;1999.90;999.90;;;;;;;0.63;64.75;102254.00;5016057;27;97189;-71
2022/01/22 06:34:00;;;;;;;1999.90;999.90;;;;;;;0.64;64.51;102255.81;5016768;27;97353;-73
2022/01/22 06:36:29;;;;;;;1999.90;999.90;;;;;;;0.62;64.67;102252.16;5015137;27;99076;-73
2022/01/22 06:39:08;;;;;;;1999.90;999.90;;;;;;;0.65;64.61;102252.44;5004877;27;101044;-71
2022/01/22 06:41:57;;;;;;;1999.90;999.90;;;;;;;0.65;64.90;102252.44;4995617;27;98037;-73
2022/01/22 06:44:34;;;;;;;1999.90;999.90;;;;;;;0.91;64.25;102251.19;5012215;27;96868;-73
2022/01/22 06:47:26;;;;;;;1999.90;999.90;;;;;;;1.14;64.24;102261.84;5015851;27;99033;-73
2022/01/22 06:49:54;;;;;;;1999.90;999.90;;;;;;;1.15;63.68;102265.41;5015645;27;99014;-73
2022/01/22 06:52:22;;;;;;;1999.90;999.90;;;;;;;0.92;65.00;102270.47;5019906;27;97301;-73
2022/01/22 06:54:53;;;;;;;1999.90;999.90;;;;;;;0.80;65.29;102272.97;5033660;27;98067;-73
2022/01/22 06:57:23;;;;;;;1999.90;999.90;;;;;;;0.72;64.90;102275.75;5048096;27;100207;-72
2022/01/22 06:59:51;;;;;;;1999.90;999.90;;;;;;;0.65;64.97;102286.50;4999849;27;100875;-74
2022/01/22 07:02:20;;;;;;;1999.90;999.90;;;;;;;0.60;65.02;102287.78;4999681;27;97006;-73
2022/01/22 07:04:49;;;;;;;1999.90;999.90;;;;;;;0.59;65.57;102291.19;5031750;27;98153;-73
2022/01/22 07:07:49;;;;;;;1999.90;999.90;;;;;;;0.91;64.62;102303.59;4983495;27;98625;-73
2022/01/22 07:10:17;;;;;;;1999.90;999.90;;;;;;;1.06;63.64;102298.72;5001522;27;98944;-73
2022/01/22 07:12:47;;;;;;;1999.90;999.90;;;;;;;0.84;64.34;102303.88;5017632;27;98133;-73
2022/01/22 07:15:15;;;;;;;1999.90;999.90;;;;;;;1.09;63.83;102302.50;5014196;27;97968;-73
2022/01/22 07:17:44;;;;;;;1999.90;999.90;;;;;;;1.26;63.21;102301.28;4996980;27;99203;-73
2022/01/22 07:20:17;;;;;;;1999.90;999.90;;;;;;;1.37;62.82;102300.47;5016128;27;97938;-72
2022/01/22 07:22:51;;;;;;;1999.90;999.90;;;;;;;0.99;64.12;102304.25;5034372;27;97115;-74
2022/01/22 07:25:38;;;;;;;1999.90;999.90;;;;;;;1.27;63.16;102294.34;5048029;27;97189;-74
2022/01/22 07:28:28;;;;;;;1999.90;999.90;;;;;;;0.87;64.69;102308.44;5017919;27;97792;-74
2022/01/22 07:30:56;;;;;;;1999.90;999.90;;;;;;;1.15;64.28;102312.59;4992222;27;100649;-72
2022/01/22 07:33:24;;;;;;;1999.90;999.90;;;;;;;1.31;63.32;102315.69;4984330;27;98430;-74
2022/01/22 07:35:53;;;;;;;1999.90;999.90;;;;;;;1.05;64.11;102305.66;5014358;27;98740;-74
2022/01/22 07:38:21;;;;;;;1999.90;999.90;;;;;;;1.29;63.79;102317.25;4995577;27;99682;-74
2022/01/22 07:40:49;;;;;;;1999.90;999.90;;;;;;;1.05;63.80;102321.38;5032489;27;99845;-74
2022/01/22 07:43:23;;;;;;;1999.90;999.90;;;;;;;0.94;64.38;102310.81;4999348;27;96892;-73
2022/01/22 07:46:05;;;;;;;1999.90;999.90;;;;;;;1.22;63.57;102320.19;5018250;27;96900;-73
2022/01/22 07:48:39;;;;;;;1999.90;999.90;;;;;;;0.97;64.75;102319.84;5017150;27;102046;-73
2022/01/22 07:51:10;;;;;;;1999.90;999.90;;;;;;;0.88;64.30;102331.25;5012554;27;99816;-74
2022/01/22 07:53:37;;;;;;;1999.90;999.90;;;;;;;0.81;64.56;102324.56;5000729;27;101175;-72
2022/01/22 07:56:13;;;;;;;1999.90;999.90;;;;;;;0.80;65.25;102335.84;4994638;27;100953;-73
2022/01/22 07:58:41;;;;;;;1999.90;999.90;;;;;;;1.10;63.79;102321.78;5015035;27;98108;-73
2022/01/22 08:01:10;;;;;;;1999.90;999.90;;;;;;;0.93;64.77;102332.56;5014162;27;98901;-73
2022/01/22 08:03:58;;;;;;;1999.90;999.90;;;;;;;0.85;65.21;102334.53;5013642;27;97313;-74
2022/01/22 08:06:32;;;;;;;1999.90;999.90;;;;;;;0.82;64.34;102336.91;5007226;27;98555;-73
2022/01/22 08:09:12;;;;;;;1999.90;999.90;;;;;;;0.78;64.73;102344.34;5026758;22;98875;-69
2022/01/22 08:12:00;;;;;;;1999.90;999.90;;;;;;;0.80;64.57;102342.78;4970556;28;100969;-68
2022/01/22 08:14:29;;;;;;;1999.90;999.90;;;;;;;0.80;64.68;102348.94;4990139;28;97973;-68
2022/01/22 08:16:58;;;;;;;1999.90;999.90;;;;;;;0.87;64.48;102347.75;4943197;28;98529;-68
2022/01/22 08:19:30;;;;;;;1999.90;999.90;;;;;;;0.84;64.83;102350.13;4939859;28;98306;-68
2022/01/22 08:21:59;;;;;;;1999.90;999.90;;;;;;;1.17;63.76;102348.66;4941992;28;99283;-69
2022/01/22 08:24:52;;;;;;;1999.90;999.90;;;;;;;1.32;63.60;102349.00;4956064;28;96841;-68
2022/01/22 08:27:33;;;;;;;1999.90;999.90;;;;;;;1.10;64.05;102358.50;4942778;28;98233;-69
2022/01/22 08:30:01;;;;;;;1999.90;999.90;;;;;;;1.34;63.58;102360.53;4952070;28;100435;-68
2022/01/22 08:32:56;;;;;;;1999.90;999.90;;;;;;;1.14;63.72;102350.09;4954867;28;100255;-69
2022/01/22 08:38:08;;;;;;;1999.90;999.90;;;;;;;1.33;63.69;102347.28;4937411;28;98259;-67
2022/01/22 08:40:36;;;;;;;1999.90;999.90;;;;;;;1.19;64.49;102343.53;4956908;28;100532;-70
2022/01/22 08:43:04;;;;;;;1999.90;999.90;;;;;;;1.47;63.16;102341.50;4971173;28;98660;-68
2022/01/22 08:45:32;;;;;;;1999.90;999.90;;;;;;;1.25;64.05;102351.91;4957790;28;98053;-68
2022/01/22 08:48:03;;;;;;;1999.90;999.90;;;;;;;1.18;64.25;102345.22;4994543;28;97735;-70
2022/01/22 08:50:35;;;;;;;1999.90;999.90;;;;;;;1.19;64.50;102359.25;4942921;28;100185;-68
2022/01/22 08:53:04;;;;;;;1999.90;999.90;;;;;;;1.49;64.14;102364.41;4947005;28;99758;-70
2022/01/22 08:55:31;;;;;;;1999.90;999.90;;;;;;;1.40;63.81;102363.66;4963369;28;96722;-70
2022/01/22 08:57:59;;;;;;;1999.90;999.90;;;;;;;1.69;63.78;102366.97;4962562;28;97432;-71
2022/01/22 09:00:47;;;;;;;1999.90;999.90;;;;;;;1.45;64.56;102364.06;4964998;28;99455;-71
2022/01/22 09:03:27;;;;;;;1999.90;999.90;;;;;;;1.39;63.72;102367.09;4948758;28;99571;-71
2022/01/22 09:05:55;;;;;;;1999.90;999.90;;;;;;;1.32;64.44;102375.22;4961622;28;98167;-71
2022/01/22 09:08:42;;;;;;;1999.90;999.90;;;;;;;1.29;64.75;102374.06;4972712;28;97212;-72
2022/01/22 09:11:19;;;;;;;1999.90;999.90;;;;;;;1.23;64.01;102367.50;4946032;28;100173;-71
2022/01/22 09:13:59;;;;;;;1999.90;999.90;;;;;;;1.23;64.96;102375.34;4960534;28;99702;-69
2022/01/22 09:16:33;;;;;;;1999.90;999.90;;;;;;;1.22;65.03;102377.84;4975528;28;96987;-72
2022/01/22 09:19:07;;;;;;;1999.90;999.90;;;;;;;1.20;64.60;102393.47;4957115;28;98536;-71
2022/01/22 09:21:36;;;;;;;1999.90;999.90;;;;;;;1.23;64.34;102395.44;4944238;28;99709;-71
2022/01/22 09:24:06;;;;;;;1999.90;999.90;;;;;;;1.29;64.25;102395.94;4954083;28;99508;-70
2022/01/22 09:26:34;;;;;;;1999.90;999.90;;;;;;;1.60;63.15;102399.44;4959379;28;97094;-70
2022/01/22 09:29:02;;;;;;;1999.90;999.90;;;;;;;1.42;64.12;102403.13;4958028;28;100769;-72
2022/01/22 09:31:35;;;;;;;1999.90;999.90;;;;;;;1.27;64.59;102407.09;4944512;28;100165;-70
2022/01/22 09:34:07;;;;;;;1999.90;999.90;;;;;;;1.22;64.79;102406.69;4965272;28;97675;-70
2022/01/22 09:36:55;;;;;;;1999.90;999.90;;;;;;;1.24;64.05;102413.00;4963269;28;97607;-69
2022/01/22 09:39:42;;;;;;;1999.90;999.90;;;;;;;1.36;63.66;102418.38;4964070;28;97188;-70
2022/01/22 09:42:34;;;;;;;1999.90;999.90;;;;;;;1.34;64.24;102419.94;4963519;28;99918;-69
2022/01/22 09:45:13;;;;;;;1999.90;999.90;;;;;;;1.31;64.40;102420.59;4962632;28;98021;-68
2022/01/22 09:48:06;;;;;;;1999.90;999.90;;;;;;;1.69;63.01;102419.44;4946798;28;97124;-69
2022/01/22 09:50:56;;;;;;;1999.90;999.90;;;;;;;1.57;63.29;102426.31;4959521;28;97427;-69
2022/01/22 09:53:44;;;;;;;1999.90;999.90;;;;;;;1.61;63.40;102423.16;4965792;28;98182;-69
2022/01/22 09:56:32;;;;;;;1999.90;999.90;;;;;;;1.60;63.69;102430.91;4967233;28;101560;-70
2022/01/22 09:59:19;;;;;;;1999.90;999.90;;;;;;;1.59;63.51;102430.00;4968252;28;98375;-69
2022/01/22 10:02:10;;;;;;;1999.90;999.90;;;;;;;1.61;63.52;102433.66;4971302;28;96980;-69
2022/01/22 10:04:41;;;;;;;1999.90;999.90;;;;;;;1.66;63.10;102432.31;4948883;28;99052;-70
2022/01/22 10:07:51;;;;;;;1999.90;999.90;;;;;;;1.63;63.36;102434.72;4940795;28;99614;-70
2022/01/22 10:10:38;;;;;;;1999.90;999.90;;;;;;;1.71;63.26;102437.94;4950576;28;99039;-70
2022/01/22 10:13:40;;;;;;;1999.90;999.90;;;;;;;1.71;62.64;102441.47;4950481;28;97291;-69
2022/01/22 10:16:22;;;;;;;1999.90;999.90;;;;;;;1.72;63.07;102437.16;4985491;28;97838;-70
2022/01/22 10:19:11;;;;;;;1999.90;999.90;;;;;;;1.68;63.17;102449.13;4961820;28;99714;-70
2022/01/22 10:21:43;;;;;;;1999.90;999.90;;;;;;;1.70;62.78;102444.91;4961190;28;98900;-70
2022/01/22 10:24:42;;;;;;;1999.90;999.90;;;;;;;1.72;63.04;102443.34;4963598;28;97290;-70
2022/01/22 10:27:23;;;;;;;1999.90;999.90;;;;;;;1.79;63.22;102440.44;4911151;28;100423;-73
2022/01/22 10:29:55;;;;;;;1999.90;999.90;;;;;;;1.87;62.09;102438.44;4965823;28;98907;-69
2022/01/22 10:32:33;;;;;;;1999.90;999.90;;;;;;;1.90;62.73;102443.94;4964761;28;96923;-70
2022/01/22 10:35:23;;;;;;;1999.90;999.90;;;;;;;1.88;62.42;102446.44;4962534;28;98159;-70
2022/01/22 10:38:23;;;;;;;1999.90;999.90;;;;;;;1.86;62.63;102445.38;4962683;28;98604;-71
2022/01/22 10:40:57;;;;;;;1999.90;999.90;;;;;;;2.09;61.54;102445.59;4961687;28;99132;-71
2022/01/22 10:43:29;;;;;;;1999.90;999.90;;;;;;;2.02;62.20;102450.16;4965213;28;97459;-70
2022/01/22 10:46:01;;;;;;;1999.90;999.90;;;;;;;1.96;62.31;102449.69;4961710;28;97145;-70
2022/01/22 10:48:29;;;;;;;1999.90;999.90;;;;;;;1.96;62.21;102445.34;4965944;28;99634;-71
2022/01/22 10:51:03;;;;;;;1999.90;999.90;;;;;;;1.94;62.12;102457.44;4965982;28;99343;-71
2022/01/22 10:53:36;;;;;;;1999.90;999.90;;;;;;;1.92;62.19;102443.28;4962303;28;97472;-71
2022/01/22 10:56:06;;;;;;;1999.90;999.90;;;;;;;1.94;62.95;102444.31;4965970;28;97125;-70
2022/01/22 10:58:34;;;;;;;1999.90;999.90;;;;;;;1.97;63.00;102441.00;4947945;28;100861;-71
2022/01/22 11:01:05;;;;;;;1999.90;999.90;;;;;;;1.97;62.71;102441.94;4966021;28;97767;-71
2022/01/22 11:03:33;;;;;;;1999.90;999.90;;;;;;;2.00;62.71;102439.53;4962944;28;98427;-71
2022/01/22 11:06:06;;;;;;;1999.90;999.90;;;;;;;2.02;62.06;102440.59;4963175;28;97203;-70
2022/01/22 11:08:33;;;;;;;1999.90;999.90;;;;;;;2.05;62.26;102432.97;4962304;28;98561;-69
2022/01/22 11:11:02;;;;;;;1999.90;999.90;;;;;;;2.02;62.54;102435.34;4991889;28;99937;-69
2022/01/22 11:13:31;;;;;;;1999.90;999.90;;;;;;;2.04;62.16;102436.38;4945311;28;97268;-69
2022/01/22 11:15:59;;;;;;;1999.90;999.90;;;;;;;2.07;62.04;102434.00;4960900;28;97983;-69
2022/01/22 11:18:28;;;;;;;1999.90;999.90;;;;;;;2.03;62.36;102442.44;4958749;28;97829;-70
2022/01/22 11:20:56;;;;;;;1999.90;999.90;;;;;;;2.02;62.20;102443.22;4957739;28;97838;-69
2022/01/22 11:23:24;;;;;;;1999.90;999.90;;;;;;;1.93;63.22;102438.91;4963991;28;96813;-69
2022/01/22 11:25:52;;;;;;;1999.90;999.90;;;;;;;1.81;62.97;102437.91;4963200;28;97253;-69
2022/01/22 11:28:21;;;;;;;1999.90;999.90;;;;;;;1.77;63.43;102436.75;4954656;28;97152;-69
2022/01/22 11:30:51;;;;;;;1999.90;999.90;;;;;;;1.81;63.07;102432.66;4961171;28;99413;-71
2022/01/22 11:33:21;;;;;;;1999.90;999.90;;;;;;;1.80;63.36;102439.63;4963279;28;96894;-69
2022/01/22 11:36:00;;;;;;;1999.90;999.90;;;;;;;1.80;63.74;102434.38;4947820;28;96920;-69
2022/01/22 11:38:30;;;;;;;1999.90;999.90;;;;;;;1.84;63.05;102432.91;4954018;28;98605;-68
2022/01/22 11:41:08;;;;;;;1999.90;999.90;;;;;;;1.89;63.35;102437.75;4965795;28;98914;-70
2022/01/22 11:43:59;;;;;;;1999.90;999.90;;;;;;;1.85;63.25;102433.03;4963868;28;97960;-69
2022/01/22 11:46:32;;;;;;;1999.90;999.90;;;;;;;1.84;62.65;102428.59;4961259;28;98618;-70
2022/01/22 11:49:15;;;;;;;1999.90;999.90;;;;;;;1.88;62.59;102442.88;4962139;28;98147;-69
2022/01/22 11:51:44;;;;;;;1999.90;999.90;;;;;;;1.92;63.12;102431.84;4977544;28;98058;-68
2022/01/22 11:54:21;;;;;;;1999.90;999.90;;;;;;;1.90;63.27;102426.47;4979186;28;98707;-69
2022/01/22 11:56:52;;;;;;;1999.90;999.90;;;;;;;1.93;62.95;102429.34;4962248;28;98991;-69
2022/01/22 11:59:25;;;;;;;1999.90;999.90;;;;;;;1.94;62.75;102435.53;4959160;28;100257;-69
2022/01/22 12:02:05;;;;;;;1999.90;999.90;;;;;;;1.96;62.70;102429.59;4957432;28;97227;-68
2022/01/22 12:04:53;;;;;;;1999.90;999.90;;;;;;;1.94;63.03;102435.53;4954705;28;97550;-69
2022/01/22 12:07:25;;;;;;;1999.90;999.90;;;;;;;1.95;63.21;102443.50;4965253;28;97396;-68
2022/01/22 12:10:32;;;;;;;1999.90;999.90;;;;;;;1.95;62.94;102443.50;4962134;28;100539;-69
2022/01/22 12:16:12;;;;;;;1999.90;999.90;;;;;;;2.03;62.92;102441.53;4940187;28;96809;-70
2022/01/22 12:18:47;;;;;;;1999.90;999.90;;;;;;;2.07;63.01;102436.63;4961977;28;96857;-70
2022/01/22 12:21:37;;;;;;;1999.90;999.90;;;;;;;2.07;62.32;102439.25;4964942;28;98964;-70
2022/01/22 12:24:07;;;;;;;1999.90;999.90;;;;;;;2.10;62.54;102439.56;4964319;28;97452;-70
2022/01/22 12:26:38;;;;;;;1999.90;999.90;;;;;;;2.06;62.46;102437.44;4965510;28;96808;-72
2022/01/22 12:29:40;;;;;;;1999.90;999.90;;;;;;;2.06;62.43;102440.06;4968579;28;97480;-69